Happy Valentine's Day! 

Flight Track Log - Related Links

Times and Time Zones

All times are in EDT time to prevent confusion due to time zone crossing. See the SWA896 flight status page for this flight to view local times or setup timezone preferences in your user account.


Time Position Orientation Groundspeed Altitude Reporting Facility
EDT Latitude Longitude Course Direction KTS MPH feet Rate Location/Type
Mon 01:50:26 PM 36.0767 -115.1706 249° West 171 197 3,100  Level Los Angeles Center
Mon 01:51:51 PM 36.0475 -115.2653 249° West 257 296 5,900 1,909 Climbing Los Angeles Center
Mon 01:52:16 PM 36.0275 -115.2750 201° Southwest 266 306 6,600 2,727 Climbing Los Angeles Center
Mon 01:53:30 PM 35.9550 -115.3397 216° Southwest 286 329 10,400 2,426 Climbing Los Angeles Center
Mon 01:54:32 PM 35.9453 -115.4503 264° West 310 357 12,100 2,323 Climbing Los Angeles Center
Mon 01:55:34 PM 35.9306 -115.5975 263° West 358 412 15,200 2,928 Climbing Los Angeles Center
Mon 01:56:37 PM 35.9181 -115.7256 263° West 376 433 18,200 2,496 Climbing Los Angeles Center
Mon 01:57:39 PM 35.9106 -115.8694 266° West 393 452 20,400 2,226 Climbing Los Angeles Center
Mon 01:58:41 PM 35.9925 -115.9644 317° Northwest 404 465 22,800 1,984 Climbing Los Angeles Center
Mon 01:59:43 PM 36.0825 -116.0439 325° Northwest 409 471 24,500 1,597 Climbing Los Angeles Center
Mon 02:00:45 PM 36.1808 -116.1283 325° Northwest 425 489 26,100 1,645 Climbing Los Angeles Center
Mon 02:01:47 PM 36.2811 -116.2172 324° Northwest 434 499 27,900 1,694 Climbing Los Angeles Center
Mon 02:02:49 PM 36.3817 -116.3025 326° Northwest 438 504 29,600 1,790 Climbing Los Angeles Center
Mon 02:03:51 PM 36.4983 -116.4069 324° Northwest 435 501 31,600 1,645 Climbing Los Angeles Center
Mon 02:04:53 PM 36.5961 -116.4939 324° Northwest 433 498 33,000 1,152 Climbing Los Angeles Center
Mon 02:05:56 PM 36.6936 -116.5800 325° Northwest 431 496 34,000 480 Climbing Los Angeles Center
Mon 02:06:58 PM 36.7906 -116.6658 325° Northwest 429 494 34,000  Level Los Angeles Center
Mon 02:08:00 PM 36.8864 -116.7519 324° Northwest 425 489 34,000  Level Los Angeles Center
Mon 02:09:02 PM 37.0014 -116.8547 324° Northwest 423 487 34,000  Level Los Angeles Center
Mon 02:10:04 PM 37.0956 -116.9406 324° Northwest 420 483 34,000  Level Los Angeles Center
Mon 02:10:24 PM 37.1150 -116.9589 323° Northwest 420 483 34,000  Level Oakland Center
Mon 02:11:06 PM 37.1917 -117.0242 326° Northwest 419 482 34,000  Level Los Angeles Center
Mon 02:12:08 PM 37.2861 -117.1111 324° Northwest 419 482 34,000  Level Los Angeles Center
Mon 02:12:27 PM 37.3192 -117.1519 316° Northwest 414 476 34,000  Level Oakland Center
Mon 02:13:29 PM 37.3922 -117.2733 307° West 428 493 34,000  Level Oakland Center
Mon 02:14:30 PM 37.4650 -117.3889 308° West 424 488 34,000  Level Oakland Center
Mon 02:15:31 PM 37.5378 -117.5053 308° West 421 484 34,000  Level Oakland Center
Mon 02:16:33 PM 37.6111 -117.6228 308° West 422 486 34,000  Level Oakland Center
Mon 02:17:34 PM 37.6844 -117.7428 308° West 428 493 34,000  Level Oakland Center
Mon 02:18:36 PM 37.7581 -117.8614 308° West 428 493 34,000  Level Oakland Center
Mon 02:19:37 PM 37.8311 -117.9825 307° West 430 495 34,000  Level Oakland Center
Mon 02:20:38 PM 37.9053 -118.1025 308° West 432 497 34,000  Level Oakland Center
Mon 02:21:40 PM 37.9789 -118.2256 307° West 436 502 34,000 -537 Level Oakland Center
Mon 02:22:41 PM 38.0522 -118.3447 308° West 429 494 32,900 -1,122 Descending Oakland Center
Mon 02:23:43 PM 38.1308 -118.4761 307° West 408 470 31,700 -1,073 Descending Oakland Center
Mon 02:24:44 PM 38.1978 -118.5889 307° West 401 461 30,700 -829 Descending Oakland Center
Mon 02:25:46 PM 38.2644 -118.6992 308° West 395 455 30,000 -390 Descending Oakland Center
Mon 02:26:47 PM 38.3314 -118.8097 308° West 394 453 29,900 -488 Descending Oakland Center
Mon 02:27:49 PM 38.3992 -118.9228 307° West 401 461 29,000 -927 Descending Oakland Center
Mon 02:28:50 PM 38.4489 -119.0561 295° West 421 484 28,000 -488 Descending Oakland Center
Mon 02:29:52 PM 38.4889 -119.1903 291° West 410 472 28,000 -195 Level Oakland Center
Mon 02:30:53 PM 38.5281 -119.3247 290° West 406 467 27,600 -780 Descending Oakland Center
Mon 02:31:55 PM 38.5742 -119.4853 290° West 401 461 26,400 -1,073 Descending Oakland Center
Mon 02:32:56 PM 38.6108 -119.6167 290° West 394 453 25,400 -976 Descending Oakland Center
Mon 02:33:58 PM 38.6478 -119.7481 290° West 392 451 24,400 -927 Descending Oakland Center
Mon 02:34:59 PM 38.6825 -119.8625 291° West 383 441 23,500 -927 Descending Oakland Center
Mon 02:36:01 PM 38.7161 -119.9881 289° West 376 433 22,500 -1,122 Descending Oakland Center
Mon 02:37:02 PM 38.7578 -120.1358 290° West 369 425 21,200 -1,122 Descending Oakland Center
Mon 02:38:04 PM 38.7886 -120.2533 289° West 357 411 20,200 -927 Descending Oakland Center
Mon 02:39:05 PM 38.8219 -120.3742 290° West 360 414 19,300 -927 Descending Oakland Center
Mon 02:40:07 PM 38.8544 -120.4925 289° West 355 409 18,300 -1,415 Descending Oakland Center
Mon 02:41:08 PM 38.8867 -120.6081 290° West 347 399 16,400 -1,610 Descending Oakland Center
Mon 02:42:10 PM 38.9167 -120.7192 289° West 336 387 15,000 -634 Descending Oakland Center
Mon 02:43:11 PM 38.9458 -120.8283 289° West 327 376 15,100 -829 Climbing Oakland Center
Mon 02:44:13 PM 38.9814 -120.9600 289° West 327 376 13,300 -1,742 Descending Oakland Center
Mon 02:45:15 PM 38.9722 -121.0750 264° West 340 391 11,500 -1,579 Descending Oakland Center
Mon 02:46:07 PM 38.9500 -121.1667 253° West 322 371 10,300 -1,232 Descending Northern Cal TRACON
Mon 02:47:07 PM 38.9167 -121.2667 247° West 290 334 9,200 -1,300 Descending Northern Cal TRACON
Mon 02:48:07 PM 38.9000 -121.3667 258° West 283 326 7,700 -1,450 Descending Northern Cal TRACON
Mon 02:49:07 PM 38.8833 -121.4667 258° West 276 318 6,300 -1,300 Descending Northern Cal TRACON
Mon 02:50:07 PM 38.8833 -121.5500 270° West 270 311 5,100 -650 Descending Northern Cal TRACON
Mon 02:51:07 PM 38.8500 -121.6500 247° West 274 315 5,000 -156 Descending Northern Cal TRACON
Mon 02:51:24 PM 38.8356 -121.6697 227° Southwest 276 318 4,900 -1,291 Descending Oakland Center
Mon 02:52:26 PM 38.7558 -121.6783 185° South 291 335 3,300 -878 Descending Oakland Center
Mon 02:53:27 PM 38.6797 -121.6753 178° South 282 325 3,100 -293 Descending Oakland Center
Mon 02:54:29 PM 38.6153 -121.6719 178° South 245 282 2,700 -780 Descending Oakland Center
Mon 02:55:07 PM 38.6000 -121.6167 109° East 212 244 1,800 -1,163 Descending Northern Cal TRACON
Mon 02:56:07 PM 38.6333 -121.6000 21° North 142 163 800 -850 Descending Northern Cal TRACON
Mon 02:57:07 PM 38.6833 -121.6000 360° North 149 171 100 -700 Descending Northern Cal TRACON

Login

Don't have an account? Register now (free) for customized features, flight alerts, and more!